Time;durP1;ratioP1;P1;durP2;ratioP2;P2;SDS_P1;SDS_P2;PMS_P1;PMS_P2;Temp;Humidity;BMP_temperature;BMP_pressure;BME280_temperature;BME280_humidity;BME280_pressure;Samples;Min_cycle;Max_cycle;Signal;HPM_P1;HPM_P2
2022/02/01 00:00:56;;;;;;;40.80;19.23;;;;;;;3.54;91.66;97789.69;5099259;27;20437;-96
2022/02/01 00:03:29;;;;;;;47.38;21.00;;;;;;;3.45;90.68;97786.31;5097143;28;20048;-94
2022/02/01 00:06:08;;;;;;;47.70;20.52;;;;;;;3.99;87.14;97809.16;5098159;28;20134;-94
2022/02/01 00:08:45;;;;;;;50.13;21.58;;;;;;;4.14;85.36;97789.59;5097398;28;20467;-95
2022/02/01 00:14:36;;;;;;;49.55;21.50;;;;;;;4.32;84.58;97815.59;5117117;27;20861;-93
2022/02/01 00:20:11;;;;;;;45.80;21.27;;;;;;;4.15;84.91;97809.75;5108650;27;20884;-94
2022/02/01 00:35:14;;;;;;;50.28;20.98;;;;;;;4.24;82.75;97825.38;5116674;27;20747;-93
2022/02/01 00:37:36;;;;;;;47.78;22.55;;;;;;;4.25;81.95;97821.88;5093742;28;20533;-92
2022/02/01 00:40:09;;;;;;;50.95;21.38;;;;;;;4.36;82.51;97837.47;5094864;28;20047;-94
2022/02/01 00:42:35;;;;;;;49.22;22.55;;;;;;;4.14;82.49;97818.53;5095847;28;20036;-94
2022/02/01 00:45:01;;;;;;;52.35;22.02;;;;;;;4.23;83.38;97834.19;5095182;28;20050;-93
2022/02/01 00:47:29;;;;;;;47.80;22.52;;;;;;;4.23;83.32;97851.72;5094947;28;20045;-93
2022/02/01 00:49:56;;;;;;;47.72;21.80;;;;;;;3.98;83.50;97803.91;5095745;28;20097;-94
2022/02/01 00:52:28;;;;;;;50.90;20.75;;;;;;;4.08;83.58;97824.78;5094817;28;20050;-94
2022/02/01 00:54:54;;;;;;;49.65;21.42;;;;;;;4.04;82.85;97809.06;5095877;28;20052;-95
2022/02/01 00:57:20;;;;;;;48.40;22.42;;;;;;;4.27;82.12;97841.13;5095743;28;20049;-93
2022/02/01 00:59:46;;;;;;;44.60;19.83;;;;;;;4.16;82.38;97824.63;5094014;28;20044;-95
2022/02/01 01:02:11;;;;;;;43.65;18.55;;;;;;;4.33;81.50;97835.75;5095927;28;20067;-94
2022/02/01 01:04:37;;;;;;;40.65;19.50;;;;;;;4.29;80.74;97820.94;5095469;28;20052;-94
2022/02/01 01:07:05;;;;;;;43.42;19.08;;;;;;;4.29;80.53;97809.50;5096406;28;20044;-91
2022/02/01 01:09:31;;;;;;;41.13;17.95;;;;;;;4.43;79.77;97828.56;5094791;28;20528;-93
2022/02/01 01:11:58;;;;;;;47.80;19.52;;;;;;;4.42;79.38;97818.91;5095008;28;20115;-93
2022/02/01 01:45:17;;;;;;;43.05;17.42;;;;;;;4.76;75.17;97797.25;5096488;27;20362;-94
2022/02/01 01:53:54;;;;;;;43.15;19.27;;;;;;;4.84;74.35;97797.97;5177282;27;20379;-93
2022/02/01 01:56:21;;;;;;;39.25;18.83;;;;;;;4.92;74.02;97800.44;5177787;27;20076;-94
2022/02/01 01:58:47;;;;;;;38.40;17.58;;;;;;;5.01;74.29;97833.63;5176338;27;20433;-93
2022/02/01 02:01:14;;;;;;;43.20;19.60;;;;;;;4.90;74.36;97818.03;5176462;27;20043;-94
2022/02/01 02:03:46;;;;;;;47.58;19.92;;;;;;;4.87;73.85;97807.56;5176504;27;20062;-94
2022/02/01 02:06:19;;;;;;;42.35;19.10;;;;;;;4.85;74.41;97820.75;5177323;27;20484;-93
2022/02/01 02:08:48;;;;;;;43.38;18.30;;;;;;;4.79;75.09;97812.09;5176927;27;20031;-94
2022/02/01 02:17:13;;;;;;;43.55;18.55;;;;;;;4.57;76.20;97854.63;5155855;27;20389;-93
2022/02/01 02:19:39;;;;;;;42.30;17.77;;;;;;;4.41;77.69;97859.31;5154873;27;20488;-94
2022/02/01 02:22:08;;;;;;;42.63;17.95;;;;;;;4.24;79.48;97864.00;5155440;27;20054;-94
2022/02/01 02:24:37;;;;;;;48.28;17.88;;;;;;;3.83;81.46;97845.31;5156488;27;20039;-94
2022/02/01 02:27:05;;;;;;;43.58;18.13;;;;;;;3.76;82.63;97843.69;5156662;27;20054;-93
2022/02/01 02:29:33;;;;;;;40.67;18.33;;;;;;;3.40;85.43;97830.16;5156761;27;20459;-94
2022/02/01 02:32:00;;;;;;;40.83;18.10;;;;;;;3.19;86.83;97840.94;5155634;27;20521;-94
2022/02/01 02:34:26;;;;;;;51.08;19.25;;;;;;;3.02;88.63;97834.16;5156908;27;20051;-94
2022/02/01 02:37:00;;;;;;;47.38;20.23;;;;;;;3.08;87.17;97844.59;5155724;27;20106;-93
2022/02/01 02:42:33;;;;;;;49.35;20.52;;;;;;;4.00;82.71;97858.22;5116412;27;20377;-94
2022/02/01 02:45:09;;;;;;;54.03;21.77;;;;;;;4.12;80.82;97846.66;5114559;28;20051;-94
2022/02/01 02:47:35;;;;;;;52.08;23.15;;;;;;;4.48;78.18;97868.84;5114158;28;20035;-91
2022/02/01 02:50:01;;;;;;;50.50;21.42;;;;;;;4.53;77.25;97858.22;5113792;28;20059;-94
2022/02/01 02:52:28;;;;;;;42.78;18.75;;;;;;;4.91;73.73;97861.94;5114617;28;20071;-93
2022/02/01 02:54:54;;;;;;;48.33;22.38;;;;;;;4.99;72.42;97841.59;5113453;28;20043;-95
2022/02/01 02:57:21;;;;;;;49.15;22.20;;;;;;;4.98;72.36;97849.50;5114637;28;20102;-93
2022/02/01 02:59:50;;;;;;;46.85;20.95;;;;;;;4.91;72.08;97851.41;5116202;28;20516;-94
2022/02/01 03:02:16;;;;;;;48.03;19.80;;;;;;;4.87;72.35;97852.34;5114447;28;20130;-96
2022/02/01 03:04:42;;;;;;;46.85;20.13;;;;;;;4.81;71.68;97841.91;5114269;28;20316;-93
2022/02/01 03:07:26;;;;;;;49.10;20.70;;;;;;;5.07;71.24;97883.56;5115036;28;20566;-94
2022/02/01 03:10:13;;;;;;;50.97;20.83;;;;;;;4.93;70.95;97874.16;5112974;28;20068;-94
2022/02/01 03:13:12;;;;;;;47.83;20.48;;;;;;;4.84;70.54;97876.13;5114587;28;20062;-94
2022/02/01 03:22:02;;;;;;;49.30;20.50;;;;;;;4.66;70.94;97888.72;5176660;27;20373;-94
2022/02/01 03:24:49;;;;;;;52.10;21.10;;;;;;;4.53;71.88;97879.28;5175449;27;20571;-95
2022/02/01 03:27:35;;;;;;;50.63;20.75;;;;;;;4.49;70.43;97865.31;5174099;27;20043;-91
2022/02/01 03:30:22;;;;;;;45.75;19.02;;;;;;;4.53;71.36;97897.72;5176016;27;20046;-95
2022/02/01 03:33:08;;;;;;;43.58;18.50;;;;;;;4.19;75.20;97892.16;5175805;27;20067;-94
2022/02/01 03:35:54;;;;;;;39.67;16.83;;;;;;;4.03;72.90;97900.25;5176443;27;20046;-95
2022/02/01 03:38:42;;;;;;;44.33;19.38;;;;;;;3.99;72.26;97921.38;5177108;27;20401;-96
2022/02/01 03:41:28;;;;;;;37.20;16.52;;;;;;;3.55;75.19;97884.28;5175754;27;20133;-95
2022/02/01 03:44:15;;;;;;;38.88;17.30;;;;;;;3.94;69.45;97897.75;5175281;27;20065;-95
2022/02/01 03:47:01;;;;;;;35.08;15.73;;;;;;;4.01;71.76;97909.06;5176333;27;20042;-94
2022/02/01 03:49:47;;;;;;;39.00;16.63;;;;;;;3.58;75.47;97901.75;5174138;27;20067;-94
2022/02/01 03:52:33;;;;;;;36.53;16.48;;;;;;;3.51;72.52;97911.50;5175044;27;20057;-93
2022/02/01 03:55:21;;;;;;;36.53;16.05;;;;;;;3.52;70.87;97912.38;5175584;27;20042;-93
2022/02/01 03:58:08;;;;;;;40.40;15.90;;;;;;;3.61;71.25;97935.91;5177040;27;20046;-96
2022/02/01 04:00:54;;;;;;;34.65;14.65;;;;;;;3.44;69.16;97913.34;5174982;27;20045;-95
2022/02/01 04:03:40;;;;;;;31.77;13.60;;;;;;;3.67;65.88;97917.44;5175793;27;20053;-94
2022/02/01 04:06:26;;;;;;;29.83;13.10;;;;;;;3.73;66.76;97917.38;5175567;27;20050;-95
2022/02/01 04:09:13;;;;;;;29.98;11.73;;;;;;;3.58;64.15;97917.53;5175668;27;20043;-95
2022/02/01 04:12:01;;;;;;;32.33;13.82;;;;;;;3.66;64.10;97911.28;5176046;27;20046;-95
2022/02/01 04:14:47;;;;;;;21.95;10.10;;;;;;;3.93;60.13;97943.38;5175917;27;20050;-95
2022/02/01 04:17:34;;;;;;;21.73;9.93;;;;;;;4.10;58.99;97922.97;5174163;27;20049;-96
2022/02/01 04:20:20;;;;;;;24.48;9.98;;;;;;;4.53;54.19;97945.09;5173896;27;20057;-93
2022/02/01 04:23:06;;;;;;;18.33;8.63;;;;;;;4.58;53.06;97924.84;5175525;27;20122;-95
2022/02/01 04:25:53;;;;;;;17.73;8.02;;;;;;;4.70;51.73;97924.63;5154820;27;20041;-95
2022/02/01 04:28:40;;;;;;;18.92;8.20;;;;;;;4.42;52.46;97903.16;5153543;27;20050;-96
2022/02/01 04:31:26;;;;;;;16.15;8.38;;;;;;;4.66;50.07;97924.69;5151482;27;20046;-95
2022/02/01 04:34:13;;;;;;;15.32;7.38;;;;;;;4.72;50.03;97922.84;5140894;27;20035;-96
2022/02/01 04:36:59;;;;;;;16.85;7.82;;;;;;;4.74;50.24;97915.78;5139315;27;20133;-93
2022/02/01 04:39:45;;;;;;;18.27;7.85;;;;;;;4.81;48.89;97929.69;5143994;27;20043;-93
2022/02/01 04:42:35;;;;;;;17.10;8.20;;;;;;;4.82;48.26;97904.25;5139976;27;20162;-95
2022/02/01 04:45:24;;;;;;;17.65;7.88;;;;;;;4.59;49.59;97884.44;5141286;27;20130;-96
2022/02/01 04:48:10;;;;;;;14.40;6.72;;;;;;;4.64;49.27;97922.13;5141188;27;20407;-93
2022/02/01 04:50:56;;;;;;;15.52;6.43;;;;;;;4.79;47.84;97933.25;5140804;27;20050;-93
2022/02/01 04:53:45;;;;;;;16.52;6.95;;;;;;;4.71;47.00;97921.13;5147317;27;20049;-95
2022/02/01 04:56:31;;;;;;;14.85;7.18;;;;;;;4.98;46.10;97957.53;5161010;27;20492;-92
2022/02/01 04:59:17;;;;;;;12.82;6.00;;;;;;;4.95;45.86;97945.28;5159925;27;20039;-95
2022/02/01 05:02:05;;;;;;;12.05;6.00;;;;;;;4.85;45.74;97938.44;5162213;27;20042;-95
2022/02/01 05:04:51;;;;;;;12.27;5.35;;;;;;;4.57;46.00;97925.72;5165144;27;20074;-95
2022/02/01 05:07:37;;;;;;;11.68;5.32;;;;;;;4.52;47.31;97943.38;5156093;27;20167;-95
2022/02/01 05:10:28;;;;;;;12.60;5.40;;;;;;;4.42;48.55;97939.16;5163195;27;20121;-96
2022/02/01 05:16:10;;;;;;;11.55;5.82;;;;;;;4.55;46.75;97945.94;5118443;27;20531;-94
2022/02/01 05:19:05;;;;;;;12.20;6.20;;;;;;;4.48;47.13;97936.41;5096794;28;20052;-91
2022/02/01 05:21:52;;;;;;;12.65;6.70;;;;;;;4.44;48.23;97945.25;5074819;28;20037;-94
2022/02/01 05:24:39;;;;;;;17.15;7.80;;;;;;;4.22;50.53;97958.75;5074948;28;20045;-93
2022/02/01 05:27:28;;;;;;;16.92;7.30;;;;;;;4.04;51.21;97952.00;5094311;28;20486;-92
2022/02/01 05:30:15;;;;;;;18.05;7.35;;;;;;;3.85;51.96;97964.50;5095901;28;20036;-94
2022/02/01 05:33:04;;;;;;;16.40;7.80;;;;;;;3.76;52.97;97982.19;5095576;28;20040;-96
2022/02/01 05:35:50;;;;;;;15.60;7.35;;;;;;;3.80;50.80;97968.13;5093820;28;20044;-93
2022/02/01 05:38:36;;;;;;;12.32;6.03;;;;;;;3.84;50.49;97985.59;5094589;28;20482;-94
2022/02/01 05:41:25;;;;;;;15.20;6.53;;;;;;;3.80;50.93;97992.66;5095276;28;20406;-93
2022/02/01 05:44:13;;;;;;;13.23;5.93;;;;;;;4.04;49.48;98012.50;5094933;28;20041;-93
2022/02/01 05:46:59;;;;;;;12.88;6.05;;;;;;;3.85;50.72;98018.88;5095733;28;20268;-93
2022/02/01 05:49:46;;;;;;;14.63;6.03;;;;;;;3.69;50.10;98002.44;5096209;28;20074;-94
2022/02/01 05:52:33;;;;;;;14.18;6.18;;;;;;;3.52;51.82;98004.38;5095992;28;20090;-94
2022/02/01 05:55:19;;;;;;;14.40;6.30;;;;;;;3.33;53.70;98009.81;5097101;28;20393;-95
2022/02/01 05:58:05;;;;;;;12.57;5.85;;;;;;;3.43;52.43;98055.28;5094027;28;20375;-94
2022/02/01 06:00:52;;;;;;;10.98;5.32;;;;;;;3.18;56.45;98052.03;5086483;28;20048;-92
2022/02/01 06:03:38;;;;;;;11.35;5.63;;;;;;;2.68;59.64;98047.16;5093275;28;20514;-93
2022/02/01 06:06:26;;;;;;;9.68;5.32;;;;;;;2.43;60.99;98058.72;5096696;28;20150;-93
2022/02/01 06:09:14;;;;;;;11.40;5.00;;;;;;;2.68;55.95;98036.66;5093245;28;20040;-93
2022/02/01 06:12:00;;;;;;;8.60;3.88;;;;;;;2.59;53.47;98036.72;5094241;28;20126;-93
2022/02/01 06:14:47;;;;;;;7.43;4.03;;;;;;;2.55;57.86;98050.75;5093911;28;20048;-92
2022/02/01 06:17:33;;;;;;;13.05;4.28;;;;;;;2.39;59.31;98054.38;5096323;28;20363;-93
2022/02/01 06:20:20;;;;;;;8.60;4.05;;;;;;;2.36;56.61;98062.25;5094677;28;20095;-95
2022/02/01 06:23:15;;;;;;;6.65;3.10;;;;;;;2.22;56.00;98057.94;5095637;28;20037;-94
2022/02/01 06:26:03;;;;;;;7.78;3.13;;;;;;;2.54;55.57;98074.38;5087410;28;20470;-93
2022/02/01 06:28:50;;;;;;;7.05;3.13;;;;;;;2.83;49.31;98072.44;5081098;28;20072;-93
2022/02/01 06:31:36;;;;;;;7.60;3.72;;;;;;;2.93;55.23;98078.50;5079916;28;20398;-93
2022/02/01 06:34:22;;;;;;;7.03;3.20;;;;;;;2.60;57.86;98074.34;5080755;28;20044;-92
2022/02/01 06:37:09;;;;;;;8.05;3.58;;;;;;;2.36;59.43;98089.34;5081979;28;20056;-93
2022/02/01 06:39:57;;;;;;;9.55;3.67;;;;;;;2.07;55.69;98076.38;5074566;28;20128;-93
2022/02/01 06:42:43;;;;;;;8.18;3.92;;;;;;;2.57;54.63;98103.25;5084167;28;20045;-94
2022/02/01 06:45:29;;;;;;;6.97;3.22;;;;;;;2.68;50.21;98068.16;5085154;28;20072;-95
2022/02/01 06:48:16;;;;;;;6.72;3.10;;;;;;;3.26;47.18;98073.84;5085846;28;20044;-94
2022/02/01 06:51:02;;;;;;;4.93;2.95;;;;;;;3.40;46.89;98079.81;5088597;28;20123;-94
2022/02/01 06:53:49;;;;;;;29.05;13.40;;;;;;;3.33;50.15;98077.28;5090665;28;20059;-94
2022/02/01 06:56:41;;;;;;;11.57;5.82;;;;;;;3.21;51.52;98088.75;5087592;28;20041;-96
2022/02/01 06:59:27;;;;;;;9.43;4.63;;;;;;;3.18;49.80;98094.06;5082814;28;20584;-94
2022/02/01 07:02:15;;;;;;;8.82;4.53;;;;;;;3.37;49.50;98102.66;5080450;28;20418;-93
2022/02/01 07:05:02;;;;;;;8.60;4.22;;;;;;;3.46;49.86;98127.09;5078006;28;20044;-95
2022/02/01 07:07:50;;;;;;;8.57;4.18;;;;;;;3.58;48.50;98131.38;5083062;28;20032;-92
2022/02/01 07:10:36;;;;;;;8.68;4.35;;;;;;;3.65;48.96;98124.28;5084244;28;20045;-93
2022/02/01 07:16:00;;;;;;;8.15;4.20;;;;;;;3.76;48.99;98167.13;5378558;22;20053;-94
2022/02/01 07:18:46;;;;;;;9.43;4.32;;;;;;;3.87;48.50;98160.00;5016309;28;20054;-93
2022/02/01 07:21:33;;;;;;;7.20;3.95;;;;;;;3.79;48.90;98143.41;5027597;28;20496;-95
2022/02/01 07:24:27;;;;;;;7.57;4.10;;;;;;;3.85;50.03;98129.34;5026949;28;20065;-95
2022/02/01 07:27:32;;;;;;;8.38;4.22;;;;;;;3.83;49.23;98134.63;5026655;28;20046;-94
2022/02/01 07:30:23;;;;;;;8.38;4.40;;;;;;;3.86;49.44;98146.84;5026888;28;20122;-94
2022/02/01 07:33:12;;;;;;;10.35;4.57;;;;;;;3.78;49.73;98128.53;5025397;28;20551;-94
2022/02/01 07:36:25;;;;;;;23.20;8.82;;;;;;;4.04;49.63;98156.34;5026282;28;20047;-94
2022/02/01 07:39:12;;;;;;;12.82;5.00;;;;;;;4.17;48.49;98175.50;5024691;28;20042;-94
2022/02/01 07:42:02;;;;;;;11.45;4.63;;;;;;;4.18;48.46;98169.31;5024974;28;20045;-94
2022/02/01 07:44:49;;;;;;;12.50;5.00;;;;;;;4.25;48.18;98173.63;5025934;28;20048;-95
2022/02/01 07:47:38;;;;;;;13.43;6.30;;;;;;;4.16;49.65;98145.66;5027550;28;20057;-94
2022/02/01 07:50:29;;;;;;;12.95;5.57;;;;;;;4.19;49.99;98144.78;5027300;28;20500;-93
2022/02/01 07:53:15;;;;;;;13.18;5.43;;;;;;;4.49;47.98;98162.81;5026708;28;20057;-94
2022/02/01 07:56:02;;;;;;;10.90;5.10;;;;;;;4.44;48.81;98151.47;5025506;28;20046;-94
2022/02/01 07:58:48;;;;;;;17.85;6.85;;;;;;;4.52;49.42;98148.75;5023313;28;20101;-93
2022/02/01 08:01:35;;;;;;;18.33;6.95;;;;;;;4.61;49.49;98153.03;5025447;28;20046;-95
2022/02/01 08:04:22;;;;;;;10.73;5.53;;;;;;;4.68;49.32;98152.94;5026027;28;20085;-95
2022/02/01 08:07:10;;;;;;;15.23;6.50;;;;;;;4.90;47.61;98140.31;5024917;28;20077;-95
2022/02/01 08:10:02;;;;;;;10.57;5.47;;;;;;;4.96;47.52;98147.25;5023060;28;20046;-93
2022/02/01 08:29:01;;;;;;;6.13;3.03;;;;;;;6.31;42.53;98188.97;6234834;22;1549706;-94
2022/02/01 08:31:49;;;;;;;8.18;3.53;;;;;;;6.38;44.35;98165.06;6297020;22;20398;-94
2022/02/01 08:34:37;;;;;;;8.13;3.83;;;;;;;6.49;43.62;98164.84;6296494;22;20054;-93
2022/02/01 08:37:24;;;;;;;7.07;3.45;;;;;;;6.61;41.03;98181.34;6295504;22;20039;-94
2022/02/01 08:40:13;;;;;;;7.20;3.67;;;;;;;6.82;42.63;98180.03;6294437;22;20073;-96
2022/02/01 08:43:02;;;;;;;7.35;3.22;;;;;;;7.17;41.08;98192.47;6296745;22;20026;-94
2022/02/01 08:45:50;;;;;;;;;;;;;;;7.34;40.63;98205.31;6293433;22;20023;-94
2022/02/01 08:48:36;;;;;;;7.93;2.95;;;;;;;7.48;39.51;98181.16;6292942;22;19959;-92
2022/02/01 08:51:25;;;;;;;5.35;2.42;;;;;;;7.49;38.53;98165.25;6290011;22;20387;-93
2022/02/01 08:54:16;;;;;;;4.07;2.30;;;;;;;7.79;39.39;98197.16;6293785;22;20020;-94
2022/02/01 09:00:13;;;;;;;3.97;2.25;;;;;;;8.06;36.80;98190.28;5113746;27;20368;-91
2022/02/01 09:03:03;;;;;;;3.97;2.53;;;;;;;8.15;36.95;98184.72;5098033;28;20150;-93
2022/02/01 09:05:49;;;;;;;4.38;2.60;;;;;;;8.22;37.45;98194.28;5105705;28;20052;-94
2022/02/01 09:08:35;;;;;;;3.22;1.88;;;;;;;8.20;36.49;98166.09;5118142;27;20044;-93
2022/02/01 09:11:21;;;;;;;2.90;1.83;;;;;;;8.55;35.88;98185.47;5115447;28;20040;-94
2022/02/01 09:14:08;;;;;;;6.20;2.63;;;;;;;8.51;35.19;98170.56;5106648;28;20498;-95
2022/02/01 09:17:00;;;;;;;4.43;2.10;;;;;;;8.55;36.09;98159.84;5109698;28;20043;-93
2022/02/01 09:19:48;;;;;;;5.30;2.60;;;;;;;8.50;36.97;98160.88;5115656;28;20044;-95
2022/02/01 09:22:34;;;;;;;6.25;2.65;;;;;;;8.76;35.28;98155.69;5116261;28;20048;-96
2022/02/01 09:25:21;;;;;;;5.75;3.53;;;;;;;8.70;35.08;98155.88;5116604;28;20044;-95
2022/02/01 09:28:07;;;;;;;5.10;3.30;;;;;;;8.62;35.21;98157.88;5117983;28;20036;-94
2022/02/01 09:30:54;;;;;;;6.00;2.72;;;;;;;9.03;35.02;98169.03;5116701;28;20099;-95
2022/02/01 09:33:21;;;;;;;6.32;3.00;;;;;;;9.22;36.84;98191.44;5119965;28;20075;-94
2022/02/01 09:35:47;;;;;;;6.07;2.83;;;;;;;9.23;38.27;98179.03;5120654;27;20048;-94
2022/02/01 09:38:15;;;;;;;5.95;3.28;;;;;;;9.20;37.12;98173.81;5117877;28;20046;-94
2022/02/01 09:40:41;;;;;;;10.25;4.47;;;;;;;9.31;37.28;98173.50;5121205;28;20093;-95
2022/02/01 09:43:07;;;;;;;6.00;2.53;;;;;;;9.40;34.11;98199.72;5117283;28;20455;-94
2022/02/01 09:45:37;;;;;;;5.80;3.15;;;;;;;9.40;35.54;98207.69;5118607;28;20040;-94
2022/02/01 09:48:03;;;;;;;5.50;2.75;;;;;;;9.04;34.47;98182.25;5116312;28;20381;-96
2022/02/01 09:50:31;;;;;;;6.60;3.70;;;;;;;9.41;33.07;98193.50;5117763;28;20048;-96
2022/02/01 09:52:57;;;;;;;5.45;2.65;;;;;;;9.44;33.40;98193.41;5120880;28;20039;-93
2022/02/01 09:55:23;;;;;;;7.18;2.88;;;;;;;9.39;34.50;98175.00;5119153;28;20047;-95
2022/02/01 09:57:54;;;;;;;6.60;2.85;;;;;;;9.46;34.22;98175.66;5117922;28;20035;-95
2022/02/01 10:00:22;;;;;;;6.80;3.30;;;;;;;9.71;34.75;98207.56;5121316;28;20061;-96
2022/02/01 10:02:56;;;;;;;8.27;3.25;;;;;;;9.70;36.17;98189.06;5126611;28;20047;-94
2022/02/01 10:05:25;;;;;;;6.95;3.05;;;;;;;9.69;34.28;98179.34;5138533;28;20126;-95
2022/02/01 10:07:54;;;;;;;4.78;2.40;;;;;;;9.66;34.16;98181.16;5137764;28;20473;-94
2022/02/01 10:10:22;;;;;;;5.50;2.70;;;;;;;9.61;32.70;98182.25;5128815;27;20031;-95
2022/02/01 10:13:00;;;;;;;4.28;2.38;;;;;;;9.74;31.76;98174.75;5123344;28;20040;-93
2022/02/01 10:15:27;;;;;;;19.15;6.38;;;;;;;10.03;33.31;98193.22;5125906;28;20039;-94
2022/02/01 10:18:00;;;;;;;24.52;9.43;;;;;;;10.20;33.20;98205.06;5125480;28;20096;-95
2022/02/01 10:20:35;;;;;;;5.60;2.50;;;;;;;10.02;32.48;98206.56;5123211;28;20062;-95
2022/02/01 10:23:15;;;;;;;10.73;4.93;;;;;;;10.20;31.88;98211.25;5119605;28;20032;-95
2022/02/01 10:25:41;;;;;;;6.10;2.38;;;;;;;10.15;31.33;98222.94;5102411;28;20068;-95
2022/02/01 10:28:14;;;;;;;4.25;2.20;;;;;;;10.13;31.87;98198.19;5104339;28;20051;-95
2022/02/01 10:30:50;;;;;;;5.03;2.40;;;;;;;10.17;31.17;98214.00;5098406;28;20124;-94
2022/02/01 10:46:54;;;;;;;4.13;2.20;;;;;;;10.38;30.16;98222.19;5117664;27;20380;-95
2022/02/01 10:49:27;;;;;;;5.60;1.92;;;;;;;10.46;30.00;98239.59;5119692;28;20050;-94
2022/02/01 10:52:15;;;;;;;4.53;2.28;;;;;;;10.35;31.66;98203.69;5119345;28;20050;-96
2022/02/01 10:55:01;;;;;;;5.53;2.03;;;;;;;10.35;30.23;98220.50;5120194;28;20124;-94
2022/02/01 10:57:29;;;;;;;4.47;2.42;;;;;;;10.16;29.17;98219.38;5118589;28;20040;-92
2022/02/01 10:59:55;;;;;;;3.58;1.92;;;;;;;10.41;29.77;98241.56;5118938;28;20048;-94
2022/02/01 11:02:24;;;;;;;3.35;1.88;;;;;;;10.36;29.09;98250.59;5115701;28;20055;-92
2022/02/01 11:04:54;;;;;;;4.88;2.10;;;;;;;10.17;30.25;98231.72;5116491;28;20043;-94
2022/02/01 11:07:28;;;;;;;3.20;1.80;;;;;;;10.27;29.48;98226.03;5118900;28;20065;-94
2022/02/01 11:09:55;;;;;;;3.72;2.10;;;;;;;10.28;30.60;98224.28;5121257;28;20101;-95
2022/02/01 11:12:32;;;;;;;7.30;2.58;;;;;;;10.26;29.85;98231.44;5122411;28;20036;-95
2022/02/01 11:15:34;;;;;;;6.18;2.40;;;;;;;10.39;31.06;98226.59;5054370;28;20868;-93
2022/02/01 11:18:50;;;;;;;5.15;2.20;;;;;;;10.53;30.03;98279.28;5117308;28;20040;-94
2022/02/01 11:21:43;;;;;;;3.20;1.98;;;;;;;10.32;29.30;98243.66;5080381;28;20047;-94
2022/02/01 11:24:20;;;;;;;2.53;1.73;;;;;;;10.51;28.71;98255.38;5112117;28;20120;-91
2022/02/01 11:26:50;;;;;;;5.28;2.38;;;;;;;10.51;28.91;98263.34;5114934;28;20047;-92
2022/02/01 11:32:31;;;;;;;4.28;2.42;;;;;;;10.47;27.98;98259.97;5178374;27;20373;-94
2022/02/01 11:35:01;;;;;;;5.00;2.25;;;;;;;10.47;28.10;98264.38;5178538;27;20106;-94
2022/02/01 11:37:29;;;;;;;2.92;2.00;;;;;;;10.40;28.49;98246.91;5181491;27;20063;-95
2022/02/01 11:39:56;;;;;;;3.97;2.40;;;;;;;10.35;29.33;98244.44;5180893;27;20494;-95
2022/02/01 11:42:31;;;;;;;5.95;2.30;;;;;;;10.41;30.45;98233.59;5180561;27;20107;-95
2022/02/01 11:45:03;;;;;;;3.95;2.40;;;;;;;10.47;28.94;98249.31;5182416;27;20051;-94
2022/02/01 11:47:35;;;;;;;3.38;1.85;;;;;;;10.61;29.18;98243.50;5162933;27;20050;-94
2022/02/01 11:50:14;;;;;;;4.85;2.38;;;;;;;10.48;27.32;98242.22;5179003;27;20065;-95
2022/02/01 11:52:45;;;;;;;4.00;2.20;;;;;;;10.62;28.67;98265.63;5165632;27;20046;-95
2022/02/01 11:55:13;;;;;;;4.57;2.25;;;;;;;10.52;27.61;98245.63;5181980;27;20039;-96
2022/02/01 11:57:44;;;;;;;6.57;2.20;;;;;;;10.52;27.83;98241.19;5181891;27;20038;-95
2022/02/01 12:00:16;;;;;;;3.72;1.98;;;;;;;10.51;27.71;98234.13;5181367;27;20050;-96
2022/02/01 12:02:49;;;;;;;7.25;3.03;;;;;;;10.63;27.30;98267.41;5162642;27;20496;-95
2022/02/01 12:05:19;;;;;;;6.38;2.38;;;;;;;10.57;27.95;98239.22;5160139;27;20401;-93
2022/02/01 12:07:54;;;;;;;4.18;2.08;;;;;;;10.57;27.53;98243.69;5179826;27;20504;-94
2022/02/01 12:10:21;;;;;;;5.50;2.22;;;;;;;10.56;27.67;98242.81;5180700;27;20039;-96
2022/02/01 12:12:47;;;;;;;5.15;2.10;;;;;;;10.57;27.16;98244.53;5179159;27;20042;-94
2022/02/01 12:15:13;;;;;;;6.25;2.13;;;;;;;10.65;28.58;98249.59;5172469;27;20042;-96
2022/02/01 12:17:49;;;;;;;4.82;2.40;;;;;;;10.86;27.53;98278.09;5180184;27;20038;-94
2022/02/01 12:20:21;;;;;;;4.25;2.10;;;;;;;10.77;28.07;98262.44;5179505;27;20042;-96
2022/02/01 12:23:12;;;;;;;6.65;2.10;;;;;;;10.69;27.62;98240.56;5178994;27;20062;-95
2022/02/01 12:25:38;;;;;;;4.55;2.40;;;;;;;10.70;28.20;98258.28;5178729;27;20049;-94
2022/02/01 12:28:16;;;;;;;4.45;2.40;;;;;;;10.82;27.31;98259.59;5177068;27;20074;-94
2022/02/01 12:30:50;;;;;;;3.30;2.15;;;;;;;10.67;27.43;98234.47;5179953;27;20049;-95
2022/02/01 12:33:21;;;;;;;3.58;2.38;;;;;;;10.76;27.36;98242.09;5178109;27;20130;-95
2022/02/01 12:35:55;;;;;;;4.38;2.20;;;;;;;10.64;27.24;98224.78;5178273;27;20046;-94
2022/02/01 12:38:26;;;;;;;3.72;2.15;;;;;;;10.79;28.15;98249.09;5177396;27;20064;-96
2022/02/01 12:40:57;;;;;;;4.55;2.20;;;;;;;10.60;28.51;98207.19;5177979;27;20043;-93
2022/02/01 12:43:27;;;;;;;3.75;2.03;;;;;;;10.52;27.35;98209.28;5146573;27;20050;-93
2022/02/01 12:49:02;;;;;;;4.22;2.35;;;;;;;10.65;27.56;98220.34;5138903;27;20380;-94
2022/02/01 12:51:38;;;;;;;3.30;2.20;;;;;;;10.62;27.32;98220.44;5138180;28;20061;-95
2022/02/01 12:54:05;;;;;;;5.05;2.30;;;;;;;10.62;27.00;98236.41;5135870;28;20546;-93
2022/02/01 12:56:31;;;;;;;3.72;2.30;;;;;;;10.75;27.06;98247.47;5136101;27;20043;-93
2022/02/01 12:58:59;;;;;;;3.85;2.30;;;;;;;10.68;27.30;98245.03;5137160;27;20096;-94
2022/02/01 13:01:34;;;;;;;4.60;2.50;;;;;;;10.63;27.55;98236.34;5138086;28;20082;-95
2022/02/01 13:04:02;;;;;;;4.05;2.50;;;;;;;10.56;26.46;98248.13;5138791;28;20136;-93
2022/02/01 13:06:29;;;;;;;3.22;2.13;;;;;;;10.59;27.65;98237.38;5136588;27;20573;-95
2022/02/01 13:15:26;;;;;;;5.18;3.00;;;;;;;10.85;26.93;98292.28;5189518;27;20382;-93
2022/02/01 13:31:34;;;;;;;4.97;2.40;;;;;;;10.94;27.17;98290.22;6324793;22;20344;-94
2022/02/01 13:34:04;;;;;;;7.28;2.53;;;;;;;10.77;27.34;98251.78;6321162;22;20015;-93
2022/02/01 13:36:31;;;;;;;7.10;3.00;;;;;;;10.79;28.67;98262.38;6325115;22;20015;-92
2022/02/01 13:38:58;;;;;;;5.85;2.85;;;;;;;10.93;28.42;98286.72;6324536;22;20156;-93
2022/02/01 13:41:26;;;;;;;11.15;2.42;;;;;;;10.67;27.80;98245.97;6322281;22;20453;-94
2022/02/01 13:43:55;;;;;;;6.95;2.75;;;;;;;10.63;28.56;98264.75;6322521;22;20015;-94
2022/02/01 13:46:23;;;;;;;5.47;2.40;;;;;;;10.61;28.87;98258.59;6324019;22;20015;-94
2022/02/01 13:49:00;;;;;;;5.78;2.70;;;;;;;10.77;29.49;98296.16;6320962;22;20019;-95
2022/02/01 13:51:28;;;;;;;8.07;3.78;;;;;;;10.49;29.52;98259.88;6321314;22;20015;-94
2022/02/01 13:53:58;;;;;;;9.50;4.25;;;;;;;10.51;30.33;98268.69;6292290;22;20022;-94
2022/02/01 13:56:28;;;;;;;7.75;3.58;;;;;;;10.63;29.68;98288.66;6290128;22;20012;-92
2022/02/01 13:59:07;;;;;;;8.00;2.88;;;;;;;10.68;30.15;98300.88;6290379;22;20377;-93
2022/02/01 14:01:33;;;;;;;5.07;2.40;;;;;;;10.61;28.68;98294.03;6290037;22;20015;-93
2022/02/01 14:04:06;;;;;;;7.88;3.63;;;;;;;10.55;29.07;98296.03;6293720;22;20021;-93
2022/02/01 14:34:22;;;;;;;6.75;3.17;;;;;;;10.36;29.83;98348.94;5010213;28;20042;-93
2022/02/01 14:37:20;;;;;;;6.00;3.47;;;;;;;10.38;30.84;98365.72;4998006;28;20046;-94
2022/02/01 14:53:34;;;;;;;21.65;7.20;;;;;;;9.66;32.17;98340.47;5136299;27;20710;-95
2022/02/01 15:14:12;;;;;;;17.50;5.93;;;;;;;9.28;34.21;98361.94;5115116;27;20385;-95
2022/02/01 15:16:38;;;;;;;12.05;6.10;;;;;;;9.29;33.94;98372.53;5115230;28;20446;-94
2022/02/01 15:19:04;;;;;;;19.75;8.52;;;;;;;9.37;33.66;98381.16;5114818;28;20042;-94
2022/02/01 15:21:31;;;;;;;17.08;8.93;;;;;;;9.34;34.20;98388.31;5114772;28;20398;-94
2022/02/01 15:23:56;;;;;;;16.95;6.93;;;;;;;9.19;34.17;98366.59;5114983;28;20131;-94
2022/02/01 15:26:22;;;;;;;11.85;5.57;;;;;;;8.97;34.74;98360.16;5115261;28;20071;-94
2022/02/01 15:28:52;;;;;;;18.55;7.53;;;;;;;8.85;34.91;98361.38;5115731;28;20101;-95
2022/02/01 15:31:20;;;;;;;9.45;4.57;;;;;;;8.89;35.41;98389.53;5115073;28;20040;-93
2022/02/01 15:33:51;;;;;;;6.63;2.90;;;;;;;9.04;34.43;98405.03;5114702;28;20047;-94
2022/02/01 15:36:16;;;;;;;6.57;3.00;;;;;;;9.00;34.92;98391.88;5114276;28;20047;-94
2022/02/01 15:38:57;;;;;;;5.82;2.95;;;;;;;8.91;35.15;98400.94;5114822;28;20039;-94
2022/02/01 15:59:21;;;;;;;7.72;4.65;;;;;;;8.02;37.29;98449.00;5095052;27;20382;-93